sensor_id;sensor_type;location;lat;lon;timestamp;P1;durP1;ratioP1;P2;durP2;ratioP2
10967;SDS011;5536;49.602;10.980;2023-06-22T00:00:13;3.58;;;3.28;;
10967;SDS011;5536;49.602;10.980;2023-06-22T00:02:41;4.68;;;3.45;;
10967;SDS011;5536;49.602;10.980;2023-06-22T00:05:09;5.05;;;3.50;;
10967;SDS011;5536;49.602;10.980;2023-06-22T00:07:36;5.10;;;3.33;;
10967;SDS011;5536;49.602;10.980;2023-06-22T00:10:03;5.50;;;3.35;;
10967;SDS011;5536;49.602;10.980;2023-06-22T00:12:31;3.70;;;3.40;;
10967;SDS011;5536;49.602;10.980;2023-06-22T00:15:00;4.43;;;3.60;;
10967;SDS011;5536;49.602;10.980;2023-06-22T00:17:27;6.85;;;3.97;;
10967;SDS011;5536;49.602;10.980;2023-06-22T00:19:54;4.82;;;4.18;;
10967;SDS011;5536;49.602;10.980;2023-06-22T00:22:26;4.78;;;3.72;;
10967;SDS011;5536;49.602;10.980;2023-06-22T00:24:54;3.75;;;3.45;;
10967;SDS011;5536;49.602;10.980;2023-06-22T00:27:21;6.93;;;3.17;;
10967;SDS011;5536;49.602;10.980;2023-06-22T00:29:48;4.88;;;3.65;;
10967;SDS011;5536;49.602;10.980;2023-06-22T00:32:15;4.75;;;4.00;;
10967;SDS011;5536;49.602;10.980;2023-06-22T00:34:43;4.28;;;3.78;;
10967;SDS011;5536;49.602;10.980;2023-06-22T00:37:10;3.70;;;3.40;;
10967;SDS011;5536;49.602;10.980;2023-06-22T00:39:39;4.28;;;3.88;;
10967;SDS011;5536;49.602;10.980;2023-06-22T00:42:06;3.28;;;2.97;;
10967;SDS011;5536;49.602;10.980;2023-06-22T00:44:33;3.40;;;3.08;;
10967;SDS011;5536;49.602;10.980;2023-06-22T00:47:01;4.35;;;3.95;;
10967;SDS011;5536;49.602;10.980;2023-06-22T00:49:28;4.57;;;3.65;;
10967;SDS011;5536;49.602;10.980;2023-06-22T00:51:57;4.05;;;3.65;;
10967;SDS011;5536;49.602;10.980;2023-06-22T00:54:24;6.07;;;4.10;;
10967;SDS011;5536;49.602;10.980;2023-06-22T00:56:53;4.10;;;3.70;;
10967;SDS011;5536;49.602;10.980;2023-06-22T00:59:22;3.70;;;3.40;;
10967;SDS011;5536;49.602;10.980;2023-06-22T01:01:51;4.10;;;3.70;;
10967;SDS011;5536;49.602;10.980;2023-06-22T01:04:18;3.38;;;3.08;;
10967;SDS011;5536;49.602;10.980;2023-06-22T01:06:47;4.65;;;3.30;;
10967;SDS011;5536;49.602;10.980;2023-06-22T01:09:22;6.22;;;3.38;;
10967;SDS011;5536;49.602;10.980;2023-06-22T01:11:57;3.58;;;3.28;;
10967;SDS011;5536;49.602;10.980;2023-06-22T01:14:28;5.50;;;3.80;;
10967;SDS011;5536;49.602;10.980;2023-06-22T01:17:03;4.47;;;3.47;;
10967;SDS011;5536;49.602;10.980;2023-06-22T01:19:35;4.63;;;3.58;;
10967;SDS011;5536;49.602;10.980;2023-06-22T01:22:12;5.38;;;4.07;;
10967;SDS011;5536;49.602;10.980;2023-06-22T01:24:44;3.70;;;3.30;;
10967;SDS011;5536;49.602;10.980;2023-06-22T01:27:21;5.90;;;3.55;;
10967;SDS011;5536;49.602;10.980;2023-06-22T01:29:59;4.10;;;3.67;;
10967;SDS011;5536;49.602;10.980;2023-06-22T01:32:30;3.95;;;3.17;;
10967;SDS011;5536;49.602;10.980;2023-06-22T01:35:00;4.38;;;3.95;;
10967;SDS011;5536;49.602;10.980;2023-06-22T01:37:29;4.28;;;3.28;;
10967;SDS011;5536;49.602;10.980;2023-06-22T01:39:58;3.58;;;3.22;;
10967;SDS011;5536;49.602;10.980;2023-06-22T01:42:28;3.65;;;3.25;;
10967;SDS011;5536;49.602;10.980;2023-06-22T01:44:55;2.92;;;2.72;;
10967;SDS011;5536;49.602;10.980;2023-06-22T01:47:26;4.15;;;3.10;;
10967;SDS011;5536;49.602;10.980;2023-06-22T01:49:53;4.88;;;3.40;;
10967;SDS011;5536;49.602;10.980;2023-06-22T01:52:21;4.10;;;3.63;;
10967;SDS011;5536;49.602;10.980;2023-06-22T01:54:48;4.28;;;2.78;;
10967;SDS011;5536;49.602;10.980;2023-06-22T01:57:16;5.43;;;3.30;;
10967;SDS011;5536;49.602;10.980;2023-06-22T01:59:45;3.83;;;3.10;;
10967;SDS011;5536;49.602;10.980;2023-06-22T02:02:17;3.53;;;2.85;;
10967;SDS011;5536;49.602;10.980;2023-06-22T02:04:54;3.45;;;3.15;;
10967;SDS011;5536;49.602;10.980;2023-06-22T02:07:28;4.07;;;3.40;;
10967;SDS011;5536;49.602;10.980;2023-06-22T02:10:00;4.72;;;3.10;;
10967;SDS011;5536;49.602;10.980;2023-06-22T02:12:29;3.78;;;3.47;;
10967;SDS011;5536;49.602;10.980;2023-06-22T02:14:58;5.75;;;3.80;;
10967;SDS011;5536;49.602;10.980;2023-06-22T02:17:26;3.25;;;2.95;;
10967;SDS011;5536;49.602;10.980;2023-06-22T02:19:54;3.75;;;3.45;;
10967;SDS011;5536;49.602;10.980;2023-06-22T02:22:22;3.60;;;3.30;;
10967;SDS011;5536;49.602;10.980;2023-06-22T02:24:50;4.18;;;3.50;;
10967;SDS011;5536;49.602;10.980;2023-06-22T02:27:18;6.18;;;3.95;;
10967;SDS011;5536;49.602;10.980;2023-06-22T02:29:45;6.30;;;3.47;;
10967;SDS011;5536;49.602;10.980;2023-06-22T02:32:12;3.42;;;3.13;;
10967;SDS011;5536;49.602;10.980;2023-06-22T02:34:42;9.82;;;3.10;;
10967;SDS011;5536;49.602;10.980;2023-06-22T02:37:14;3.47;;;3.10;;
10967;SDS011;5536;49.602;10.980;2023-06-22T02:39:41;3.42;;;3.13;;
10967;SDS011;5536;49.602;10.980;2023-06-22T02:42:08;6.05;;;4.03;;
10967;SDS011;5536;49.602;10.980;2023-06-22T02:44:36;5.28;;;3.22;;
10967;SDS011;5536;49.602;10.980;2023-06-22T02:47:04;4.85;;;3.53;;
10967;SDS011;5536;49.602;10.980;2023-06-22T02:49:31;3.80;;;3.50;;
10967;SDS011;5536;49.602;10.980;2023-06-22T02:51:58;4.25;;;3.35;;
10967;SDS011;5536;49.602;10.980;2023-06-22T02:54:27;4.07;;;3.30;;
10967;SDS011;5536;49.602;10.980;2023-06-22T02:56:54;11.23;;;3.63;;
10967;SDS011;5536;49.602;10.980;2023-06-22T02:59:21;4.03;;;3.28;;
10967;SDS011;5536;49.602;10.980;2023-06-22T03:01:49;3.10;;;2.90;;
10967;SDS011;5536;49.602;10.980;2023-06-22T03:04:16;4.95;;;3.78;;
10967;SDS011;5536;49.602;10.980;2023-06-22T03:06:44;4.10;;;3.70;;
10967;SDS011;5536;49.602;10.980;2023-06-22T03:09:16;4.25;;;3.75;;
10967;SDS011;5536;49.602;10.980;2023-06-22T03:11:45;4.10;;;3.25;;
10967;SDS011;5536;49.602;10.980;2023-06-22T03:14:15;5.85;;;4.18;;
10967;SDS011;5536;49.602;10.980;2023-06-22T03:16:43;6.35;;;4.55;;
10967;SDS011;5536;49.602;10.980;2023-06-22T03:19:11;4.97;;;4.20;;
10967;SDS011;5536;49.602;10.980;2023-06-22T03:21:39;4.32;;;3.83;;
10967;SDS011;5536;49.602;10.980;2023-06-22T03:24:09;11.75;;;4.60;;
10967;SDS011;5536;49.602;10.980;2023-06-22T03:26:36;3.22;;;2.92;;
10967;SDS011;5536;49.602;10.980;2023-06-22T03:29:05;4.03;;;3.50;;
10967;SDS011;5536;49.602;10.980;2023-06-22T03:31:33;4.18;;;3.78;;
10967;SDS011;5536;49.602;10.980;2023-06-22T03:34:00;8.52;;;5.00;;
10967;SDS011;5536;49.602;10.980;2023-06-22T03:36:28;5.05;;;3.80;;
10967;SDS011;5536;49.602;10.980;2023-06-22T03:38:55;4.72;;;4.07;;
10967;SDS011;5536;49.602;10.980;2023-06-22T03:41:22;4.63;;;3.95;;
10967;SDS011;5536;49.602;10.980;2023-06-22T03:43:50;3.83;;;3.53;;
10967;SDS011;5536;49.602;10.980;2023-06-22T03:46:19;3.97;;;3.63;;
10967;SDS011;5536;49.602;10.980;2023-06-22T03:48:46;7.63;;;4.57;;
10967;SDS011;5536;49.602;10.980;2023-06-22T03:51:14;4.43;;;3.83;;
10967;SDS011;5536;49.602;10.980;2023-06-22T03:53:41;3.72;;;3.42;;
10967;SDS011;5536;49.602;10.980;2023-06-22T03:56:08;5.38;;;4.30;;
10967;SDS011;5536;49.602;10.980;2023-06-22T03:58:36;4.43;;;4.03;;
10967;SDS011;5536;49.602;10.980;2023-06-22T04:01:08;6.13;;;4.60;;
10967;SDS011;5536;49.602;10.980;2023-06-22T04:03:39;6.75;;;4.20;;
10967;SDS011;5536;49.602;10.980;2023-06-22T04:06:07;5.78;;;4.45;;
10967;SDS011;5536;49.602;10.980;2023-06-22T04:08:35;4.60;;;4.15;;
10967;SDS011;5536;49.602;10.980;2023-06-22T04:11:02;5.65;;;4.97;;
10967;SDS011;5536;49.602;10.980;2023-06-22T04:13:30;6.70;;;4.78;;
10967;SDS011;5536;49.602;10.980;2023-06-22T04:15:57;4.82;;;4.35;;
10967;SDS011;5536;49.602;10.980;2023-06-22T04:18:26;4.95;;;3.88;;
10967;SDS011;5536;49.602;10.980;2023-06-22T04:20:55;6.90;;;4.43;;
10967;SDS011;5536;49.602;10.980;2023-06-22T04:23:22;6.00;;;4.70;;
10967;SDS011;5536;49.602;10.980;2023-06-22T04:25:49;4.93;;;4.28;;
10967;SDS011;5536;49.602;10.980;2023-06-22T04:28:16;5.15;;;4.57;;
10967;SDS011;5536;49.602;10.980;2023-06-22T04:30:44;5.43;;;4.38;;
10967;SDS011;5536;49.602;10.980;2023-06-22T04:33:13;5.20;;;4.20;;
10967;SDS011;5536;49.602;10.980;2023-06-22T04:35:40;4.22;;;3.88;;
10967;SDS011;5536;49.602;10.980;2023-06-22T04:38:11;6.35;;;4.00;;
10967;SDS011;5536;49.602;10.980;2023-06-22T04:40:39;8.98;;;4.28;;
10967;SDS011;5536;49.602;10.980;2023-06-22T04:43:07;5.53;;;3.60;;
10967;SDS011;5536;49.602;10.980;2023-06-22T04:45:35;4.30;;;3.90;;
10967;SDS011;5536;49.602;10.980;2023-06-22T04:48:03;4.45;;;4.05;;
10967;SDS011;5536;49.602;10.980;2023-06-22T04:50:31;4.50;;;4.07;;
10967;SDS011;5536;49.602;10.980;2023-06-22T04:52:59;6.07;;;4.88;;
10967;SDS011;5536;49.602;10.980;2023-06-22T04:55:31;4.30;;;3.78;;
10967;SDS011;5536;49.602;10.980;2023-06-22T04:57:59;4.28;;;3.60;;
10967;SDS011;5536;49.602;10.980;2023-06-22T05:00:30;4.40;;;3.65;;
10967;SDS011;5536;49.602;10.980;2023-06-22T05:02:57;3.55;;;3.25;;
10967;SDS011;5536;49.602;10.980;2023-06-22T05:05:25;3.38;;;3.08;;
10967;SDS011;5536;49.602;10.980;2023-06-22T05:07:53;3.60;;;3.30;;
10967;SDS011;5536;49.602;10.980;2023-06-22T05:10:25;6.65;;;3.63;;
10967;SDS011;5536;49.602;10.980;2023-06-22T05:12:54;7.07;;;3.83;;
10967;SDS011;5536;49.602;10.980;2023-06-22T05:15:21;3.10;;;2.80;;
10967;SDS011;5536;49.602;10.980;2023-06-22T05:17:53;3.15;;;2.92;;
10967;SDS011;5536;49.602;10.980;2023-06-22T05:20:20;3.55;;;3.22;;
10967;SDS011;5536;49.602;10.980;2023-06-22T05:22:48;3.63;;;3.30;;
10967;SDS011;5536;49.602;10.980;2023-06-22T05:25:15;3.38;;;3.08;;
10967;SDS011;5536;49.602;10.980;2023-06-22T05:27:42;3.42;;;3.13;;
10967;SDS011;5536;49.602;10.980;2023-06-22T05:30:11;9.63;;;3.47;;
10967;SDS011;5536;49.602;10.980;2023-06-22T05:32:38;5.32;;;3.55;;
10967;SDS011;5536;49.602;10.980;2023-06-22T05:35:06;4.15;;;3.28;;
10967;SDS011;5536;49.602;10.980;2023-06-22T05:37:33;3.55;;;3.10;;
10967;SDS011;5536;49.602;10.980;2023-06-22T05:40:00;3.33;;;3.05;;
10967;SDS011;5536;49.602;10.980;2023-06-22T05:42:30;3.72;;;3.22;;
10967;SDS011;5536;49.602;10.980;2023-06-22T05:44:57;4.03;;;3.65;;
10967;SDS011;5536;49.602;10.980;2023-06-22T05:47:25;3.53;;;3.22;;
10967;SDS011;5536;49.602;10.980;2023-06-22T05:49:52;3.50;;;3.20;;
10967;SDS011;5536;49.602;10.980;2023-06-22T05:52:20;3.60;;;3.08;;
10967;SDS011;5536;49.602;10.980;2023-06-22T05:54:47;3.30;;;3.00;;
10967;SDS011;5536;49.602;10.980;2023-06-22T05:57:14;6.20;;;2.95;;
10967;SDS011;5536;49.602;10.980;2023-06-22T05:59:42;3.65;;;3.28;;
10967;SDS011;5536;49.602;10.980;2023-06-22T06:02:09;3.45;;;3.13;;
10967;SDS011;5536;49.602;10.980;2023-06-22T06:04:37;5.75;;;3.08;;
10967;SDS011;5536;49.602;10.980;2023-06-22T06:07:04;4.20;;;3.80;;
10967;SDS011;5536;49.602;10.980;2023-06-22T06:09:31;4.25;;;3.47;;
10967;SDS011;5536;49.602;10.980;2023-06-22T06:11:59;4.35;;;3.85;;
10967;SDS011;5536;49.602;10.980;2023-06-22T06:14:28;11.75;;;3.70;;
10967;SDS011;5536;49.602;10.980;2023-06-22T06:16:55;3.00;;;2.80;;
10967;SDS011;5536;49.602;10.980;2023-06-22T06:19:22;4.15;;;3.65;;
10967;SDS011;5536;49.602;10.980;2023-06-22T06:21:51;3.75;;;3.38;;
10967;SDS011;5536;49.602;10.980;2023-06-22T06:24:18;8.43;;;3.30;;
10967;SDS011;5536;49.602;10.980;2023-06-22T06:26:45;4.13;;;3.28;;
10967;SDS011;5536;49.602;10.980;2023-06-22T06:29:13;3.55;;;3.05;;
10967;SDS011;5536;49.602;10.980;2023-06-22T06:31:41;3.30;;;3.00;;
10967;SDS011;5536;49.602;10.980;2023-06-22T06:34:09;4.28;;;3.63;;
10967;SDS011;5536;49.602;10.980;2023-06-22T06:36:36;2.38;;;2.28;;
10967;SDS011;5536;49.602;10.980;2023-06-22T06:39:04;3.53;;;3.05;;
10967;SDS011;5536;49.602;10.980;2023-06-22T06:41:31;10.15;;;3.20;;
10967;SDS011;5536;49.602;10.980;2023-06-22T06:43:58;5.88;;;3.47;;
10967;SDS011;5536;49.602;10.980;2023-06-22T06:46:26;3.42;;;3.08;;
10967;SDS011;5536;49.602;10.980;2023-06-22T06:48:53;4.22;;;3.63;;
10967;SDS011;5536;49.602;10.980;2023-06-22T06:51:20;4.57;;;3.13;;
10967;SDS011;5536;49.602;10.980;2023-06-22T06:53:47;5.90;;;4.53;;
10967;SDS011;5536;49.602;10.980;2023-06-22T06:56:16;3.05;;;2.75;;
10967;SDS011;5536;49.602;10.980;2023-06-22T06:58:43;3.92;;;3.42;;
10967;SDS011;5536;49.602;10.980;2023-06-22T07:01:10;6.60;;;2.88;;
10967;SDS011;5536;49.602;10.980;2023-06-22T07:03:38;4.78;;;3.30;;
10967;SDS011;5536;49.602;10.980;2023-06-22T07:06:05;9.80;;;6.72;;
10967;SDS011;5536;49.602;10.980;2023-06-22T07:08:32;5.43;;;3.03;;
10967;SDS011;5536;49.602;10.980;2023-06-22T07:11:00;5.55;;;3.50;;
10967;SDS011;5536;49.602;10.980;2023-06-22T07:13:28;2.10;;;2.00;;
10967;SDS011;5536;49.602;10.980;2023-06-22T07:15:55;4.68;;;3.72;;
10967;SDS011;5536;49.602;10.980;2023-06-22T07:18:23;7.10;;;5.60;;
10967;SDS011;5536;49.602;10.980;2023-06-22T07:20:51;3.58;;;3.13;;
10967;SDS011;5536;49.602;10.980;2023-06-22T07:23:18;4.65;;;3.42;;
10967;SDS011;5536;49.602;10.980;2023-06-22T07:25:45;7.88;;;5.35;;
10967;SDS011;5536;49.602;10.980;2023-06-22T07:28:12;4.80;;;4.30;;
10967;SDS011;5536;49.602;10.980;2023-06-22T07:30:41;3.50;;;2.75;;
10967;SDS011;5536;49.602;10.980;2023-06-22T07:33:08;3.78;;;3.45;;
10967;SDS011;5536;49.602;10.980;2023-06-22T07:35:35;3.05;;;2.65;;
10967;SDS011;5536;49.602;10.980;2023-06-22T07:38:02;2.08;;;1.98;;
10967;SDS011;5536;49.602;10.980;2023-06-22T07:40:30;5.97;;;2.58;;
10967;SDS011;5536;49.602;10.980;2023-06-22T07:42:57;2.92;;;2.67;;
10967;SDS011;5536;49.602;10.980;2023-06-22T07:45:24;3.03;;;2.47;;
10967;SDS011;5536;49.602;10.980;2023-06-22T07:47:53;3.95;;;2.95;;
10967;SDS011;5536;49.602;10.980;2023-06-22T07:50:19;3.65;;;2.78;;
10967;SDS011;5536;49.602;10.980;2023-06-22T07:52:46;5.82;;;3.22;;
10967;SDS011;5536;49.602;10.980;2023-06-22T07:55:14;2.17;;;2.08;;
10967;SDS011;5536;49.602;10.980;2023-06-22T07:57:41;2.55;;;2.35;;
10967;SDS011;5536;49.602;10.980;2023-06-22T08:00:08;3.38;;;2.65;;
10967;SDS011;5536;49.602;10.980;2023-06-22T08:02:38;3.45;;;2.05;;
10967;SDS011;5536;49.602;10.980;2023-06-22T08:05:07;2.75;;;2.40;;
10967;SDS011;5536;49.602;10.980;2023-06-22T08:07:34;3.25;;;2.75;;
10967;SDS011;5536;49.602;10.980;2023-06-22T08:10:03;2.10;;;2.00;;
10967;SDS011;5536;49.602;10.980;2023-06-22T08:12:30;2.25;;;2.10;;
10967;SDS011;5536;49.602;10.980;2023-06-22T08:14:58;4.00;;;2.88;;
10967;SDS011;5536;49.602;10.980;2023-06-22T08:17:25;2.40;;;2.20;;
10967;SDS011;5536;49.602;10.980;2023-06-22T08:19:52;2.60;;;2.40;;
10967;SDS011;5536;49.602;10.980;2023-06-22T08:22:21;2.47;;;2.20;;
10967;SDS011;5536;49.602;10.980;2023-06-22T08:24:48;2.97;;;2.15;;
10967;SDS011;5536;49.602;10.980;2023-06-22T08:27:15;5.60;;;2.22;;
10967;SDS011;5536;49.602;10.980;2023-06-22T08:29:46;3.50;;;2.35;;
10967;SDS011;5536;49.602;10.980;2023-06-22T08:32:13;2.00;;;1.90;;
10967;SDS011;5536;49.602;10.980;2023-06-22T08:34:40;4.75;;;2.55;;
10967;SDS011;5536;49.602;10.980;2023-06-22T08:37:08;3.20;;;2.40;;
10967;SDS011;5536;49.602;10.980;2023-06-22T08:39:37;2.83;;;1.92;;
10967;SDS011;5536;49.602;10.980;2023-06-22T08:42:07;7.82;;;2.08;;
10967;SDS011;5536;49.602;10.980;2023-06-22T08:44:34;2.25;;;1.60;;
10967;SDS011;5536;49.602;10.980;2023-06-22T08:47:01;2.47;;;2.08;;
10967;SDS011;5536;49.602;10.980;2023-06-22T08:49:28;1.92;;;1.77;;
10967;SDS011;5536;49.602;10.980;2023-06-22T08:51:56;2.75;;;2.35;;
10967;SDS011;5536;49.602;10.980;2023-06-22T08:54:23;4.18;;;2.42;;
10967;SDS011;5536;49.602;10.980;2023-06-22T08:56:52;4.60;;;2.85;;
10967;SDS011;5536;49.602;10.980;2023-06-22T08:59:19;2.50;;;1.85;;
10967;SDS011;5536;49.602;10.980;2023-06-22T09:01:46;1.67;;;1.60;;
10967;SDS011;5536;49.602;10.980;2023-06-22T09:04:13;2.50;;;2.17;;
10967;SDS011;5536;49.602;10.980;2023-06-22T09:06:41;2.65;;;2.35;;
10967;SDS011;5536;49.602;10.980;2023-06-22T09:09:10;2.00;;;1.90;;
10967;SDS011;5536;49.602;10.980;2023-06-22T09:11:38;4.07;;;2.03;;
10967;SDS011;5536;49.602;10.980;2023-06-22T09:14:07;2.38;;;2.20;;
10967;SDS011;5536;49.602;10.980;2023-06-22T09:16:34;2.40;;;2.10;;
10967;SDS011;5536;49.602;10.980;2023-06-22T09:19:01;2.53;;;2.33;;
10967;SDS011;5536;49.602;10.980;2023-06-22T09:21:28;3.10;;;2.13;;
10967;SDS011;5536;49.602;10.980;2023-06-22T09:23:56;2.28;;;2.08;;
10967;SDS011;5536;49.602;10.980;2023-06-22T09:26:23;2.72;;;2.10;;
10967;SDS011;5536;49.602;10.980;2023-06-22T09:28:50;1.70;;;1.60;;
10967;SDS011;5536;49.602;10.980;2023-06-22T09:31:19;2.25;;;1.92;;
10967;SDS011;5536;49.602;10.980;2023-06-22T09:33:50;1.75;;;1.65;;
10967;SDS011;5536;49.602;10.980;2023-06-22T09:36:19;2.30;;;2.10;;
10967;SDS011;5536;49.602;10.980;2023-06-22T09:38:47;5.68;;;2.60;;
10967;SDS011;5536;49.602;10.980;2023-06-22T09:41:21;2.22;;;2.05;;
10967;SDS011;5536;49.602;10.980;2023-06-22T09:43:48;11.63;;;4.63;;
10967;SDS011;5536;49.602;10.980;2023-06-22T09:46:15;2.30;;;2.10;;
10967;SDS011;5536;49.602;10.980;2023-06-22T09:48:44;5.13;;;2.10;;
10967;SDS011;5536;49.602;10.980;2023-06-22T09:51:11;3.78;;;2.72;;
10967;SDS011;5536;49.602;10.980;2023-06-22T09:53:38;2.60;;;2.40;;
10967;SDS011;5536;49.602;10.980;2023-06-22T09:56:05;2.20;;;2.10;;
10967;SDS011;5536;49.602;10.980;2023-06-22T09:58:36;4.55;;;2.53;;
10967;SDS011;5536;49.602;10.980;2023-06-22T10:01:03;4.53;;;2.45;;
10967;SDS011;5536;49.602;10.980;2023-06-22T10:03:30;3.53;;;2.50;;
10967;SDS011;5536;49.602;10.980;2023-06-22T10:05:59;2.38;;;2.17;;
10967;SDS011;5536;49.602;10.980;2023-06-22T10:08:26;2.50;;;2.30;;
10967;SDS011;5536;49.602;10.980;2023-06-22T10:10:53;2.30;;;2.10;;
10967;SDS011;5536;49.602;10.980;2023-06-22T10:13:20;3.10;;;2.33;;
10967;SDS011;5536;49.602;10.980;2023-06-22T10:15:47;1.83;;;1.73;;
10967;SDS011;5536;49.602;10.980;2023-06-22T10:18:16;9.05;;;2.17;;
10967;SDS011;5536;49.602;10.980;2023-06-22T10:20:43;2.20;;;2.10;;
10967;SDS011;5536;49.602;10.980;2023-06-22T10:23:12;2.30;;;2.10;;
10967;SDS011;5536;49.602;10.980;2023-06-22T10:25:39;2.65;;;1.88;;
10967;SDS011;5536;49.602;10.980;2023-06-22T10:28:06;4.65;;;2.08;;
10967;SDS011;5536;49.602;10.980;2023-06-22T10:30:33;2.67;;;2.40;;
10967;SDS011;5536;49.602;10.980;2023-06-22T10:33:00;2.35;;;2.15;;
10967;SDS011;5536;49.602;10.980;2023-06-22T10:35:27;2.25;;;2.05;;
10967;SDS011;5536;49.602;10.980;2023-06-22T10:37:54;2.97;;;2.10;;
10967;SDS011;5536;49.602;10.980;2023-06-22T10:40:23;2.17;;;1.98;;
10967;SDS011;5536;49.602;10.980;2023-06-22T10:42:50;2.30;;;2.15;;
10967;SDS011;5536;49.602;10.980;2023-06-22T10:45:17;2.13;;;1.95;;
10967;SDS011;5536;49.602;10.980;2023-06-22T10:47:44;2.40;;;2.20;;
10967;SDS011;5536;49.602;10.980;2023-06-22T10:50:11;2.50;;;2.30;;
10967;SDS011;5536;49.602;10.980;2023-06-22T10:52:39;2.13;;;1.95;;
10967;SDS011;5536;49.602;10.980;2023-06-22T10:55:07;2.20;;;1.85;;
10967;SDS011;5536;49.602;10.980;2023-06-22T10:57:36;2.72;;;2.53;;
10967;SDS011;5536;49.602;10.980;2023-06-22T11:00:05;3.70;;;3.35;;
10967;SDS011;5536;49.602;10.980;2023-06-22T11:02:33;5.18;;;2.63;;
10967;SDS011;5536;49.602;10.980;2023-06-22T11:05:00;2.65;;;2.45;;
10967;SDS011;5536;49.602;10.980;2023-06-22T11:07:29;3.25;;;2.35;;
10967;SDS011;5536;49.602;10.980;2023-06-22T11:09:56;6.38;;;1.95;;
10967;SDS011;5536;49.602;10.980;2023-06-22T11:12:23;3.17;;;2.70;;
10967;SDS011;5536;49.602;10.980;2023-06-22T11:14:52;7.20;;;2.67;;
10967;SDS011;5536;49.602;10.980;2023-06-22T11:17:19;5.70;;;4.53;;
10967;SDS011;5536;49.602;10.980;2023-06-22T11:19:46;2.33;;;2.15;;
10967;SDS011;5536;49.602;10.980;2023-06-22T11:22:14;3.40;;;2.70;;
10967;SDS011;5536;49.602;10.980;2023-06-22T11:24:41;2.83;;;2.10;;
10967;SDS011;5536;49.602;10.980;2023-06-22T11:27:08;6.00;;;4.15;;
10967;SDS011;5536;49.602;10.980;2023-06-22T11:29:35;8.23;;;2.80;;
10967;SDS011;5536;49.602;10.980;2023-06-22T11:32:06;3.08;;;2.13;;
10967;SDS011;5536;49.602;10.980;2023-06-22T11:34:34;2.53;;;2.28;;
10967;SDS011;5536;49.602;10.980;2023-06-22T11:37:01;5.40;;;2.80;;
10967;SDS011;5536;49.602;10.980;2023-06-22T11:39:29;6.90;;;2.35;;
10967;SDS011;5536;49.602;10.980;2023-06-22T11:41:56;2.58;;;2.05;;
10967;SDS011;5536;49.602;10.980;2023-06-22T11:44:24;2.47;;;2.28;;
10967;SDS011;5536;49.602;10.980;2023-06-22T11:46:51;1.80;;;1.70;;
10967;SDS011;5536;49.602;10.980;2023-06-22T11:49:20;3.90;;;2.50;;
10967;SDS011;5536;49.602;10.980;2023-06-22T11:51:47;2.17;;;1.98;;
10967;SDS011;5536;49.602;10.980;2023-06-22T11:54:15;2.67;;;2.15;;
10967;SDS011;5536;49.602;10.980;2023-06-22T11:56:42;4.22;;;1.92;;
10967;SDS011;5536;49.602;10.980;2023-06-22T11:59:09;5.30;;;2.10;;
10967;SDS011;5536;49.602;10.980;2023-06-22T12:01:37;3.38;;;2.35;;
10967;SDS011;5536;49.602;10.980;2023-06-22T12:04:04;5.10;;;2.60;;
10967;SDS011;5536;49.602;10.980;2023-06-22T12:06:32;3.42;;;2.47;;
10967;SDS011;5536;49.602;10.980;2023-06-22T12:09:03;2.58;;;2.38;;
10967;SDS011;5536;49.602;10.980;2023-06-22T12:11:30;12.20;;;4.25;;
10967;SDS011;5536;49.602;10.980;2023-06-22T12:13:58;20.77;;;3.60;;
10967;SDS011;5536;49.602;10.980;2023-06-22T12:16:26;2.30;;;2.05;;
10967;SDS011;5536;49.602;10.980;2023-06-22T12:18:54;4.50;;;3.15;;
10967;SDS011;5536;49.602;10.980;2023-06-22T12:21:21;1.92;;;1.67;;
10967;SDS011;5536;49.602;10.980;2023-06-22T12:23:50;5.22;;;2.60;;
10967;SDS011;5536;49.602;10.980;2023-06-22T12:26:17;2.80;;;2.17;;
10967;SDS011;5536;49.602;10.980;2023-06-22T12:28:44;4.07;;;2.05;;
10967;SDS011;5536;49.602;10.980;2023-06-22T12:31:11;3.63;;;1.92;;
10967;SDS011;5536;49.602;10.980;2023-06-22T12:33:39;10.80;;;2.75;;
10967;SDS011;5536;49.602;10.980;2023-06-22T12:36:06;1.95;;;1.75;;
10967;SDS011;5536;49.602;10.980;2023-06-22T12:38:34;3.35;;;2.08;;
10967;SDS011;5536;49.602;10.980;2023-06-22T12:41:02;2.25;;;1.95;;
10967;SDS011;5536;49.602;10.980;2023-06-22T12:43:30;2.67;;;1.95;;
10967;SDS011;5536;49.602;10.980;2023-06-22T12:45:57;2.28;;;2.08;;
10967;SDS011;5536;49.602;10.980;2023-06-22T12:48:25;1.83;;;1.73;;
10967;SDS011;5536;49.602;10.980;2023-06-22T12:50:53;2.60;;;2.33;;
10967;SDS011;5536;49.602;10.980;2023-06-22T12:53:20;2.20;;;1.83;;
10967;SDS011;5536;49.602;10.980;2023-06-22T12:55:48;3.33;;;2.15;;
10967;SDS011;5536;49.602;10.980;2023-06-22T12:58:17;3.15;;;2.47;;
10967;SDS011;5536;49.602;10.980;2023-06-22T13:00:45;1.88;;;1.77;;
10967;SDS011;5536;49.602;10.980;2023-06-22T13:03:12;3.80;;;1.75;;
10967;SDS011;5536;49.602;10.980;2023-06-22T13:05:39;4.70;;;2.35;;
10967;SDS011;5536;49.602;10.980;2023-06-22T13:08:06;4.55;;;2.65;;
10967;SDS011;5536;49.602;10.980;2023-06-22T13:10:34;3.72;;;2.13;;
10967;SDS011;5536;49.602;10.980;2023-06-22T13:13:01;2.65;;;2.20;;
10967;SDS011;5536;49.602;10.980;2023-06-22T13:15:30;3.55;;;2.13;;
10967;SDS011;5536;49.602;10.980;2023-06-22T13:17:57;5.05;;;2.05;;
10967;SDS011;5536;49.602;10.980;2023-06-22T13:20:25;2.40;;;2.13;;
10967;SDS011;5536;49.602;10.980;2023-06-22T13:22:53;5.07;;;2.60;;
10967;SDS011;5536;49.602;10.980;2023-06-22T13:25:21;6.32;;;2.55;;
10967;SDS011;5536;49.602;10.980;2023-06-22T13:27:51;6.10;;;2.25;;
10967;SDS011;5536;49.602;10.980;2023-06-22T13:30:18;24.25;;;3.47;;
10967;SDS011;5536;49.602;10.980;2023-06-22T13:32:47;2.80;;;2.45;;
10967;SDS011;5536;49.602;10.980;2023-06-22T13:35:14;2.72;;;2.40;;
10967;SDS011;5536;49.602;10.980;2023-06-22T13:37:41;3.88;;;1.98;;
10967;SDS011;5536;49.602;10.980;2023-06-22T13:40:08;2.35;;;2.13;;
10967;SDS011;5536;49.602;10.980;2023-06-22T13:42:36;7.15;;;2.10;;
10967;SDS011;5536;49.602;10.980;2023-06-22T13:45:03;2.60;;;2.15;;
10967;SDS011;5536;49.602;10.980;2023-06-22T13:47:31;2.53;;;2.10;;
10967;SDS011;5536;49.602;10.980;2023-06-22T13:49:59;4.90;;;2.20;;
10967;SDS011;5536;49.602;10.980;2023-06-22T13:52:29;2.15;;;1.95;;
10967;SDS011;5536;49.602;10.980;2023-06-22T13:54:57;3.15;;;2.17;;
10967;SDS011;5536;49.602;10.980;2023-06-22T13:57:24;2.40;;;1.90;;
10967;SDS011;5536;49.602;10.980;2023-06-22T13:59:56;3.13;;;2.08;;
10967;SDS011;5536;49.602;10.980;2023-06-22T14:02:27;4.30;;;2.47;;
10967;SDS011;5536;49.602;10.980;2023-06-22T14:05:06;6.93;;;2.20;;
10967;SDS011;5536;49.602;10.980;2023-06-22T14:07:40;2.47;;;2.28;;
10967;SDS011;5536;49.602;10.980;2023-06-22T14:10:08;5.10;;;2.75;;
10967;SDS011;5536;49.602;10.980;2023-06-22T14:12:39;2.55;;;1.90;;
10967;SDS011;5536;49.602;10.980;2023-06-22T14:15:10;11.07;;;2.78;;
10967;SDS011;5536;49.602;10.980;2023-06-22T14:17:37;2.25;;;2.03;;
10967;SDS011;5536;49.602;10.980;2023-06-22T14:20:06;2.30;;;2.10;;
10967;SDS011;5536;49.602;10.980;2023-06-22T14:22:34;2.50;;;2.10;;
10967;SDS011;5536;49.602;10.980;2023-06-22T14:25:01;4.07;;;1.77;;
10967;SDS011;5536;49.602;10.980;2023-06-22T14:27:29;4.32;;;2.38;;
10967;SDS011;5536;49.602;10.980;2023-06-22T14:29:56;25.30;;;2.28;;
10967;SDS011;5536;49.602;10.980;2023-06-22T14:32:23;2.63;;;1.95;;
10967;SDS011;5536;49.602;10.980;2023-06-22T14:34:51;2.97;;;2.35;;
10967;SDS011;5536;49.602;10.980;2023-06-22T14:37:19;2.33;;;2.10;;
10967;SDS011;5536;49.602;10.980;2023-06-22T14:39:46;2.17;;;1.98;;
10967;SDS011;5536;49.602;10.980;2023-06-22T14:42:13;3.45;;;2.70;;
10967;SDS011;5536;49.602;10.980;2023-06-22T14:44:40;17.10;;;2.10;;
10967;SDS011;5536;49.602;10.980;2023-06-22T14:47:07;5.07;;;2.75;;
10967;SDS011;5536;49.602;10.980;2023-06-22T14:49:34;2.35;;;1.73;;
10967;SDS011;5536;49.602;10.980;2023-06-22T14:52:02;3.33;;;2.17;;